createdAt,value
2022-11-05T00:02:04.098Z,100.00
2022-11-05T00:04:33.843Z,100.00
2022-11-05T00:07:03.633Z,100.00
2022-11-05T00:09:33.804Z,100.00
2022-11-05T00:12:03.595Z,100.00
2022-11-05T00:14:33.340Z,100.00
2022-11-05T00:16:47.476Z,100.00
2022-11-05T00:19:09.567Z,100.00
2022-11-05T00:21:35.604Z,100.00
2022-11-05T00:24:05.094Z,100.00
2022-11-05T00:26:18.561Z,100.00
2022-11-05T00:28:32.498Z,100.00
2022-11-05T00:30:46.085Z,100.00
2022-11-05T00:33:03.627Z,100.00
2022-11-05T00:35:16.854Z,100.00
2022-11-05T00:37:30.513Z,100.00
2022-11-05T00:39:43.771Z,100.00
2022-11-05T00:42:10.829Z,100.00
2022-11-05T00:44:39.941Z,100.00
2022-11-05T00:47:13.105Z,100.00
2022-11-05T00:49:35.177Z,100.00
2022-11-05T00:51:48.301Z,100.00
2022-11-05T00:54:02.343Z,100.00
2022-11-05T00:56:15.749Z,100.00
2022-11-05T00:58:30.411Z,100.00
2022-11-05T01:00:45.255Z,100.00
2022-11-05T01:03:01.057Z,100.00
2022-11-05T01:05:14.778Z,100.00
2022-11-05T01:07:27.960Z,100.00
2022-11-05T01:09:41.241Z,100.00
2022-11-05T01:11:56.076Z,100.00
2022-11-05T01:14:11.887Z,100.00
2022-11-05T01:16:25.003Z,100.00
2022-11-05T01:18:39.704Z,100.00
2022-11-05T01:20:54.272Z,100.00
2022-11-05T01:23:12.956Z,100.00
2022-11-05T01:25:26.694Z,100.00
2022-11-05T01:27:40.648Z,100.00
2022-11-05T01:29:53.882Z,100.00
2022-11-05T01:32:07.728Z,100.00
2022-11-05T01:34:20.959Z,100.00
2022-11-05T01:36:35.383Z,100.00
2022-11-05T01:38:49.192Z,100.00
2022-11-05T01:41:02.476Z,100.00
2022-11-05T01:43:21.381Z,100.00
2022-11-05T01:45:35.233Z,100.00
2022-11-05T01:48:05.552Z,100.00
2022-11-05T01:50:30.657Z,100.00
2022-11-05T01:52:44.747Z,100.00
2022-11-05T01:54:59.588Z,100.00
2022-11-05T01:57:15.208Z,100.00
2022-11-05T01:59:32.646Z,100.00
2022-11-05T02:01:47.816Z,100.00
2022-11-05T02:04:05.783Z,100.00
2022-11-05T02:06:20.240Z,100.00
2022-11-05T02:08:49.315Z,100.00
2022-11-05T02:11:02.960Z,100.00
2022-11-05T02:13:17.181Z,100.00
2022-11-05T02:15:38.983Z,100.00
2022-11-05T02:18:00.860Z,100.00
2022-11-05T02:20:27.161Z,100.00
2022-11-05T02:23:13.832Z,100.00
2022-11-05T02:25:48.240Z,100.00
2022-11-05T02:28:24.518Z,100.00
2022-11-05T02:30:45.724Z,100.00
2022-11-05T02:33:20.293Z,100.00
2022-11-05T02:35:53.199Z,100.00
2022-11-05T02:38:12.468Z,100.00
2022-11-05T02:40:34.919Z,100.00
2022-11-05T02:42:47.837Z,100.00
2022-11-05T02:45:09.077Z,100.00
2022-11-05T02:47:30.223Z,100.00
2022-11-05T02:49:51.263Z,100.00
2022-11-05T02:52:06.686Z,100.00
2022-11-05T02:54:28.221Z,100.00
2022-11-05T02:56:44.948Z,100.00
2022-11-05T02:58:59.265Z,100.00
2022-11-05T03:01:13.143Z,100.00
2022-11-05T03:03:37.428Z,100.00
2022-11-05T03:06:04.853Z,100.00
2022-11-05T03:08:28.014Z,100.00
2022-11-05T03:10:49.894Z,100.00
2022-11-05T03:13:15.585Z,100.00
2022-11-05T03:15:37.424Z,100.00
2022-11-05T03:17:57.404Z,100.00
2022-11-05T03:20:19.431Z,100.00
2022-11-05T03:22:37.900Z,100.00
2022-11-05T03:24:55.458Z,100.00
2022-11-05T03:27:13.139Z,100.00
2022-11-05T03:29:30.652Z,100.00
2022-11-05T03:31:48.020Z,100.00
2022-11-05T03:34:03.235Z,100.00
2022-11-05T03:36:23.273Z,100.00
2022-11-05T03:38:41.055Z,100.00
2022-11-05T03:40:57.829Z,100.00
2022-11-05T03:43:13.275Z,100.00
2022-11-05T03:45:30.239Z,100.00
2022-11-05T03:47:48.577Z,100.00
2022-11-05T03:50:08.360Z,100.00
2022-11-05T03:52:24.303Z,100.00
2022-11-05T03:54:38.313Z,100.00
2022-11-05T03:57:01.645Z,100.00
2022-11-05T03:59:16.220Z,100.00
2022-11-05T04:01:30.479Z,100.00
2022-11-05T04:03:44.063Z,100.00
2022-11-05T04:06:11.683Z,100.00
2022-11-05T04:08:43.915Z,100.00
2022-11-05T04:11:13.300Z,100.00
2022-11-05T04:13:29.624Z,100.00
2022-11-05T04:15:55.775Z,100.00
2022-11-05T04:18:09.078Z,100.00
2022-11-05T04:20:38.877Z,100.00
2022-11-05T04:23:08.930Z,100.00
2022-11-05T04:25:24.168Z,100.00
2022-11-05T04:27:38.007Z,100.00
2022-11-05T04:30:07.769Z,100.00
2022-11-05T04:32:21.018Z,100.00
2022-11-05T04:34:34.264Z,100.00
2022-11-05T04:36:47.629Z,100.00
2022-11-05T04:39:00.930Z,100.00
2022-11-05T04:41:23.776Z,100.00
2022-11-05T04:43:37.480Z,100.00
2022-11-05T04:45:51.144Z,100.00
2022-11-05T04:48:04.527Z,100.00
2022-11-05T04:50:18.305Z,100.00
2022-11-05T04:52:32.343Z,100.00
2022-11-05T04:54:45.684Z,100.00
2022-11-05T04:56:58.976Z,100.00
2022-11-05T04:59:12.666Z,100.00
2022-11-05T05:01:28.045Z,100.00
2022-11-05T05:03:41.834Z,100.00
2022-11-05T05:05:59.430Z,100.00
2022-11-05T05:08:15.884Z,100.00
2022-11-05T05:10:30.051Z,100.00
2022-11-05T05:12:44.838Z,100.00
2022-11-05T05:14:58.133Z,100.00
2022-11-05T05:17:11.498Z,100.00
2022-11-05T05:19:24.859Z,100.00
2022-11-05T05:21:44.532Z,100.00
2022-11-05T05:23:57.754Z,100.00
2022-11-05T05:26:11.496Z,100.00
2022-11-05T05:28:24.941Z,100.00
2022-11-05T05:30:38.293Z,100.00
2022-11-05T05:32:52.766Z,100.00
2022-11-05T05:35:05.926Z,100.00
2022-11-05T05:37:19.329Z,100.00
2022-11-05T05:39:32.651Z,100.00
2022-11-05T05:41:45.906Z,100.00
2022-11-05T06:02:47.321Z,100.00
2022-11-05T06:05:01.353Z,100.00
2022-11-05T06:07:16.008Z,100.00
2022-11-05T06:09:29.244Z,100.00
2022-11-05T06:11:42.940Z,100.00
2022-11-05T06:13:56.701Z,100.00
2022-11-05T06:16:13.489Z,100.00
2022-11-05T06:18:28.854Z,100.00
2022-11-05T06:20:42.100Z,100.00
2022-11-05T06:23:03.150Z,100.00
2022-11-05T06:25:18.263Z,100.00
2022-11-05T06:27:33.514Z,100.00
2022-11-05T06:29:47.371Z,100.00
2022-11-05T06:32:00.704Z,100.00
2022-11-05T06:34:14.289Z,100.00
2022-11-05T06:36:30.292Z,100.00
2022-11-05T06:38:43.969Z,100.00
2022-11-05T06:40:57.444Z,100.00
2022-11-05T06:43:11.939Z,100.00
2022-11-05T06:45:25.919Z,100.00
2022-11-05T06:47:39.370Z,100.00
2022-11-05T06:49:53.710Z,100.00
2022-11-05T06:52:09.268Z,100.00
2022-11-05T06:54:22.618Z,100.00
2022-11-05T06:56:36.101Z,100.00
2022-11-05T06:58:51.374Z,100.00
2022-11-05T07:01:06.226Z,100.00
2022-11-05T07:03:19.766Z,100.00
2022-11-05T07:05:34.914Z,100.00
2022-11-05T07:07:49.071Z,100.00
2022-11-05T07:10:02.326Z,100.00
2022-11-05T07:12:17.034Z,100.00
2022-11-05T07:14:30.494Z,100.00
2022-11-05T07:16:46.369Z,100.00
2022-11-05T07:18:59.598Z,100.00
2022-11-05T07:21:13.063Z,100.00
2022-11-05T07:23:26.702Z,100.00
2022-11-05T07:25:41.622Z,100.00
2022-11-05T07:27:55.756Z,100.00
2022-11-05T07:30:10.432Z,100.00
2022-11-05T07:32:25.175Z,100.00
2022-11-05T07:34:39.329Z,100.00
2022-11-05T07:36:52.492Z,100.00
2022-11-05T07:39:05.694Z,100.00
2022-11-05T07:41:20.474Z,100.00
2022-11-05T07:43:33.806Z,100.00
2022-11-05T07:45:48.925Z,100.00
2022-11-05T07:48:04.314Z,100.00
2022-11-05T07:50:18.135Z,100.00
2022-11-05T07:52:32.745Z,100.00
2022-11-05T07:54:47.987Z,100.00
2022-11-05T07:57:02.700Z,100.00
2022-11-05T07:59:16.030Z,100.00
2022-11-05T08:01:30.321Z,100.00
2022-11-05T08:03:43.730Z,98.52
2022-11-05T08:05:57.008Z,97.61
2022-11-05T08:08:13.267Z,99.99
2022-11-05T08:10:27.968Z,99.50
2022-11-05T08:12:41.152Z,96.88
2022-11-05T08:14:54.475Z,96.65
2022-11-05T08:17:07.723Z,95.13
2022-11-05T08:19:22.103Z,96.62
2022-11-05T08:21:35.355Z,95.22
2022-11-05T08:23:49.389Z,94.89
2022-11-05T08:26:06.059Z,97.11
2022-11-05T08:28:20.983Z,95.77
2022-11-05T08:30:35.255Z,96.34
2022-11-05T08:32:48.732Z,96.57
2022-11-05T08:35:02.000Z,96.13
2022-11-05T08:37:15.243Z,95.29
2022-11-05T08:39:28.414Z,95.38
2022-11-05T08:41:41.672Z,93.25
2022-11-05T08:43:54.933Z,94.59
2022-11-05T08:46:08.846Z,94.75
2022-11-05T08:48:23.376Z,93.74
2022-11-05T08:50:37.160Z,91.59
2022-11-05T08:52:50.489Z,91.00
2022-11-05T08:55:06.230Z,89.77
2022-11-05T08:57:19.555Z,89.24
2022-11-05T08:59:32.971Z,87.76
2022-11-05T09:01:46.542Z,87.32
2022-11-05T09:04:00.306Z,85.10
2022-11-05T09:06:14.174Z,84.85
2022-11-05T09:08:28.608Z,84.68
2022-11-05T09:10:42.456Z,83.77
2022-11-05T09:12:55.799Z,82.03
2022-11-05T09:15:09.320Z,83.25
2022-11-05T09:17:25.470Z,82.95
2022-11-05T09:19:40.254Z,81.17
2022-11-05T09:21:53.915Z,82.30
2022-11-05T09:24:07.699Z,82.55
2022-11-05T09:26:21.934Z,81.26
2022-11-05T09:28:36.989Z,81.34
2022-11-05T09:30:52.088Z,81.25
2022-11-05T09:33:08.141Z,81.83
2022-11-05T09:35:21.650Z,82.14
2022-11-05T09:37:37.051Z,82.37
2022-11-05T09:39:50.344Z,81.93
2022-11-05T09:42:10.575Z,82.64
2022-11-05T09:44:27.765Z,83.18
2022-11-05T09:46:48.966Z,83.26
2022-11-05T09:49:07.271Z,82.55
2022-11-05T09:51:24.171Z,82.13
2022-11-05T09:53:40.611Z,82.66
2022-11-05T09:55:57.915Z,82.27
2022-11-05T09:58:18.465Z,81.66
2022-11-05T10:00:34.699Z,82.08
2022-11-05T10:02:54.987Z,81.31
2022-11-05T10:05:13.440Z,81.06
2022-11-05T10:07:30.248Z,80.97
2022-11-05T10:09:49.071Z,81.88
2022-11-05T10:12:07.681Z,81.98
2022-11-05T10:14:26.488Z,82.18
2022-11-05T10:16:44.550Z,82.43
2022-11-05T10:19:02.853Z,82.73
2022-11-05T10:21:37.684Z,82.81
2022-11-05T10:23:54.734Z,83.24
2022-11-05T10:26:13.663Z,82.91
2022-11-05T10:28:29.116Z,83.06
2022-11-05T10:30:42.552Z,83.25
2022-11-05T10:33:00.037Z,83.47
2022-11-05T10:35:17.951Z,82.00
2022-11-05T10:37:35.855Z,81.97
2022-11-05T10:39:52.277Z,82.39
2022-11-05T10:42:25.969Z,82.19
2022-11-05T10:44:45.103Z,81.69
2022-11-05T10:47:11.916Z,81.11
2022-11-05T10:49:42.520Z,81.21
2022-11-05T10:52:02.051Z,81.85
2022-11-05T10:54:20.577Z,82.29
2022-11-05T10:56:39.996Z,82.17
2022-11-05T10:59:02.059Z,82.17
2022-11-05T11:01:18.160Z,82.55
2022-11-05T11:03:48.430Z,83.08
2022-11-05T11:06:09.423Z,82.86
2022-11-05T11:08:28.855Z,83.06
2022-11-05T11:10:53.790Z,83.07
2022-11-05T11:13:07.028Z,83.25
2022-11-05T11:15:27.807Z,83.24
2022-11-05T11:17:41.053Z,83.34
2022-11-05T11:19:54.771Z,83.45
2022-11-05T11:22:24.595Z,82.67
2022-11-05T11:24:46.099Z,82.09
2022-11-05T11:27:05.439Z,79.43
2022-11-05T11:29:29.496Z,78.47
2022-11-05T11:31:44.818Z,80.09
2022-11-05T11:34:04.458Z,80.10
2022-11-05T11:36:20.959Z,79.71
2022-11-05T11:38:36.936Z,79.87
2022-11-05T11:40:51.301Z,79.95
2022-11-05T11:43:07.883Z,79.16
2022-11-05T11:45:28.590Z,78.84
2022-11-05T11:47:46.372Z,79.67
2022-11-05T11:50:01.440Z,78.54
2022-11-05T11:52:18.333Z,78.83
2022-11-05T11:54:31.730Z,77.55
2022-11-05T11:56:52.103Z,78.21
2022-11-05T11:59:19.719Z,78.80
2022-11-05T12:02:13.125Z,78.56
2022-11-05T12:04:55.434Z,79.47
2022-11-05T12:07:22.446Z,79.50
2022-11-05T12:09:48.298Z,80.43
2022-11-05T12:12:11.034Z,80.92
2022-11-05T12:14:35.608Z,81.21
2022-11-05T12:17:12.148Z,81.29
2022-11-05T12:19:40.389Z,81.36
2022-11-05T12:22:04.228Z,81.44
2022-11-05T12:24:49.964Z,81.31
2022-11-05T12:27:15.263Z,81.13
2022-11-05T12:29:54.845Z,81.55
2022-11-05T12:32:34.129Z,81.87
2022-11-05T12:34:58.979Z,81.76
2022-11-05T12:37:24.562Z,80.85
2022-11-05T12:42:46.829Z,78.81
2022-11-05T12:45:16.058Z,78.60
2022-11-05T12:47:56.488Z,78.57
2022-11-05T12:50:21.920Z,77.34
2022-11-05T12:53:00.272Z,76.49
2022-11-05T12:55:18.742Z,76.97
2022-11-05T12:57:34.543Z,76.41
2022-11-05T12:59:57.249Z,77.51
2022-11-05T13:02:24.768Z,76.61
2022-11-05T13:04:43.996Z,77.47
2022-11-05T13:06:59.488Z,77.43
2022-11-05T13:09:17.757Z,76.94
2022-11-05T13:11:44.927Z,76.86
2022-11-05T13:14:09.501Z,77.69
2022-11-05T13:16:30.672Z,77.85
2022-11-05T13:18:48.732Z,78.49
2022-11-05T13:21:05.755Z,79.34
2022-11-05T13:23:28.374Z,79.60
2022-11-05T13:25:40.963Z,79.40
2022-11-05T13:28:02.074Z,79.53
2022-11-05T13:30:21.791Z,79.78
2022-11-05T13:32:40.271Z,80.04
2022-11-05T13:34:55.173Z,80.20
2022-11-05T13:37:27.050Z,79.71
2022-11-05T13:39:47.503Z,79.42
2022-11-05T13:42:41.323Z,79.67
2022-11-05T13:45:17.186Z,79.93
2022-11-05T13:47:42.359Z,80.44
2022-11-05T13:50:25.779Z,80.49
2022-11-05T13:53:13.929Z,80.19
2022-11-05T13:55:41.191Z,78.78
2022-11-05T13:58:17.812Z,76.51
2022-11-05T14:00:33.324Z,76.90
2022-11-05T14:02:48.885Z,76.48
2022-11-05T14:05:05.673Z,76.40
2022-11-05T14:07:25.076Z,77.13
2022-11-05T14:09:41.694Z,77.26
2022-11-05T14:11:59.665Z,77.17
2022-11-05T14:14:21.547Z,77.59
2022-11-05T14:16:53.131Z,78.22
2022-11-05T14:19:37.345Z,78.65
2022-11-05T14:21:55.557Z,78.45
2022-11-05T14:24:30.982Z,78.82
2022-11-05T14:26:44.379Z,79.00
2022-11-05T14:29:27.345Z,79.25
2022-11-05T14:32:13.064Z,79.60
2022-11-05T14:34:44.237Z,79.59
2022-11-05T14:37:31.011Z,79.56
2022-11-05T14:39:46.280Z,79.58
2022-11-05T14:42:07.489Z,80.00
2022-11-05T14:44:21.940Z,80.14
2022-11-05T14:46:48.537Z,80.09
2022-11-05T14:49:09.748Z,79.94
2022-11-05T14:51:36.166Z,79.98
2022-11-05T14:53:50.783Z,80.17
2022-11-05T14:56:11.575Z,80.17
2022-11-05T14:58:42.782Z,80.61
2022-11-05T15:00:57.117Z,80.98
2022-11-05T15:03:41.081Z,80.65
2022-11-05T15:06:06.696Z,81.06
2022-11-05T15:08:56.012Z,81.50
2022-11-05T15:11:21.943Z,81.07
2022-11-05T15:13:40.076Z,79.54
2022-11-05T15:15:53.863Z,78.48
2022-11-05T15:18:16.453Z,77.31
2022-11-05T15:20:38.819Z,77.71
2022-11-05T15:22:57.187Z,80.60
2022-11-05T15:25:19.040Z,82.27
2022-11-05T15:27:50.251Z,82.75
2022-11-05T15:30:07.590Z,83.48
2022-11-05T15:32:27.863Z,83.84
2022-11-05T15:34:41.347Z,84.85
2022-11-05T15:36:57.351Z,85.45
2022-11-05T15:39:29.695Z,85.38
2022-11-05T15:41:43.449Z,85.44
2022-11-05T15:43:57.014Z,85.69
2022-11-05T15:46:18.221Z,85.91
2022-11-05T15:48:32.984Z,86.09
2022-11-05T15:50:46.474Z,86.20
2022-11-05T15:53:14.622Z,86.18
2022-11-05T15:55:33.564Z,85.95
2022-11-05T15:57:51.649Z,86.00
2022-11-05T16:00:07.159Z,85.55
2022-11-05T16:02:34.581Z,84.22
2022-11-05T16:04:52.824Z,83.39
2022-11-05T16:07:14.384Z,83.46
2022-11-05T16:09:32.871Z,83.73
2022-11-05T16:11:46.784Z,83.56
2022-11-05T16:14:16.484Z,83.59
2022-11-05T16:16:37.480Z,84.28
2022-11-05T16:18:52.791Z,85.36
2022-11-05T16:21:14.338Z,86.20
2022-11-05T16:23:43.152Z,87.17
2022-11-05T16:25:57.076Z,87.52
2022-11-05T16:28:22.259Z,87.31
2022-11-05T16:30:35.596Z,86.94
2022-11-05T16:32:49.911Z,86.88
2022-11-05T16:35:05.327Z,86.16
2022-11-05T16:37:22.769Z,85.34
2022-11-05T16:39:36.511Z,85.37
2022-11-05T16:41:51.515Z,85.47
2022-11-05T16:44:08.337Z,85.91
2022-11-05T16:46:23.152Z,85.51
2022-11-05T16:48:36.984Z,85.60
2022-11-05T16:50:51.095Z,86.25
2022-11-05T16:53:04.440Z,85.75
2022-11-05T16:55:18.769Z,84.89
2022-11-05T16:57:34.914Z,84.87
2022-11-05T16:59:49.189Z,85.25
2022-11-05T17:02:02.727Z,85.80
2022-11-05T17:04:18.098Z,85.45
2022-11-05T17:06:31.439Z,85.49
2022-11-05T17:08:45.563Z,84.93
2022-11-05T17:10:59.314Z,83.87
2022-11-05T17:13:13.147Z,84.52
2022-11-05T17:15:32.231Z,84.93
2022-11-05T17:17:45.974Z,83.85
2022-11-05T17:19:59.483Z,81.52
2022-11-05T17:22:12.993Z,82.21
2022-11-05T17:24:26.636Z,82.70
2022-11-05T17:26:40.486Z,83.15
2022-11-05T17:28:54.127Z,83.56
2022-11-05T17:31:08.654Z,84.62
2022-11-05T17:33:22.468Z,85.09
2022-11-05T17:35:37.548Z,85.81
2022-11-05T17:37:51.598Z,86.63
2022-11-05T17:40:05.968Z,87.42
2022-11-05T17:42:21.089Z,88.01
2022-11-05T17:44:35.113Z,87.87
2022-11-05T17:46:48.506Z,87.93
2022-11-05T17:49:02.878Z,88.10
2022-11-05T17:51:18.198Z,87.79
2022-11-05T17:53:32.270Z,87.51
2022-11-05T17:55:46.794Z,87.60
2022-11-05T17:58:01.453Z,87.32
2022-11-05T18:00:19.085Z,87.39
2022-11-05T18:02:35.345Z,87.22
2022-11-05T18:04:49.544Z,87.23
2022-11-05T18:07:03.185Z,87.16
2022-11-05T18:09:17.114Z,87.04
2022-11-05T18:11:31.330Z,86.39
2022-11-05T18:13:44.595Z,86.71
2022-11-05T18:15:59.992Z,86.98
2022-11-05T18:18:14.007Z,86.91
2022-11-05T18:20:27.395Z,86.63
2022-11-05T18:22:42.270Z,85.71
2022-11-05T18:24:55.931Z,85.30
2022-11-05T18:27:09.491Z,84.76
2022-11-05T18:29:22.803Z,84.10
2022-11-05T18:31:36.173Z,83.64
2022-11-05T18:33:49.441Z,82.65
2022-11-05T18:36:02.672Z,81.00
2022-11-05T18:38:17.264Z,81.47
2022-11-05T18:40:31.587Z,81.98
2022-11-05T18:42:45.381Z,82.16
2022-11-05T18:44:58.979Z,82.85
2022-11-05T18:47:12.600Z,81.33
2022-11-05T18:49:26.932Z,78.95
2022-11-05T18:51:40.610Z,80.42
2022-11-05T18:53:54.000Z,81.30
2022-11-05T18:56:13.663Z,82.66
2022-11-05T18:58:27.139Z,83.48
2022-11-05T19:00:43.006Z,84.48
2022-11-05T19:02:56.926Z,84.26
2022-11-05T19:07:45.976Z,86.63
2022-11-05T19:09:59.280Z,86.70
2022-11-05T19:12:13.318Z,87.18
2022-11-05T19:14:26.588Z,87.75
2022-11-05T19:16:40.145Z,88.17
2022-11-05T19:18:54.377Z,87.77
2022-11-05T19:21:10.984Z,87.61
2022-11-05T19:23:24.299Z,87.58
2022-11-05T19:25:40.514Z,86.53
2022-11-05T19:27:59.210Z,87.34
2022-11-05T19:30:14.639Z,87.46
2022-11-05T19:33:08.568Z,86.99
2022-11-05T19:35:26.790Z,86.28
2022-11-05T19:37:44.006Z,86.41
2022-11-05T19:39:57.345Z,86.58
2022-11-05T19:42:12.563Z,86.49
2022-11-05T19:44:25.983Z,86.02
2022-11-05T19:46:39.666Z,85.63
2022-11-05T19:48:53.504Z,86.16
2022-11-05T19:51:07.692Z,85.71
2022-11-05T19:53:21.028Z,85.28
2022-11-05T19:55:34.499Z,85.64
2022-11-05T19:57:49.274Z,85.62
2022-11-05T20:00:02.502Z,86.02
2022-11-05T20:02:24.218Z,85.57
2022-11-05T20:04:37.952Z,85.72
2022-11-05T20:06:51.315Z,85.46
2022-11-05T20:09:20.999Z,85.49
2022-11-05T20:11:35.588Z,85.09
2022-11-05T20:13:50.338Z,84.40
2022-11-05T20:16:03.799Z,84.58
2022-11-05T20:18:18.206Z,83.85
2022-11-05T20:20:31.459Z,83.46
2022-11-05T20:22:44.733Z,83.72
2022-11-05T20:24:58.051Z,84.13
2022-11-05T20:27:12.287Z,84.39
2022-11-05T20:29:30.512Z,83.75
2022-11-05T20:31:47.970Z,82.66
2022-11-05T20:34:01.284Z,82.91
2022-11-05T20:36:17.144Z,82.32
2022-11-05T20:38:30.496Z,82.29
2022-11-05T20:40:46.049Z,82.43
2022-11-05T20:43:00.293Z,81.70
2022-11-05T20:45:16.617Z,81.24
2022-11-05T20:47:29.888Z,79.59
2022-11-05T20:49:43.149Z,80.36
2022-11-05T20:51:56.638Z,80.45
2022-11-05T20:54:10.125Z,81.01
2022-11-05T20:56:28.008Z,81.23
2022-11-05T20:58:43.805Z,80.78
2022-11-05T21:00:58.456Z,80.09
2022-11-05T21:03:11.753Z,79.98
2022-11-05T21:05:25.527Z,80.69
2022-11-05T21:07:40.142Z,80.89
2022-11-05T21:09:53.405Z,80.89
2022-11-05T21:12:20.202Z,80.98
2022-11-05T21:14:35.055Z,80.67
2022-11-05T21:16:48.412Z,80.27
2022-11-05T21:19:04.237Z,80.18
2022-11-05T21:21:20.434Z,80.17
2022-11-05T21:23:34.859Z,80.21
2022-11-05T21:25:49.202Z,80.14
2022-11-05T21:28:03.016Z,80.49
2022-11-05T21:30:18.222Z,80.25
2022-11-05T21:32:31.433Z,79.65
2022-11-05T21:34:44.757Z,79.94
2022-11-05T21:37:00.299Z,79.86
2022-11-05T21:39:14.088Z,80.03
2022-11-05T21:41:28.210Z,79.98
2022-11-05T21:43:43.539Z,78.93
2022-11-05T21:45:56.821Z,78.86
2022-11-05T21:48:14.482Z,78.98
2022-11-05T21:50:48.990Z,78.69
2022-11-05T21:53:18.765Z,76.30
2022-11-05T21:55:48.516Z,76.83
2022-11-05T21:58:18.875Z,76.50
2022-11-05T22:00:33.159Z,76.63
2022-11-05T22:02:47.396Z,76.94
2022-11-05T22:05:03.930Z,77.93
2022-11-05T22:07:20.600Z,78.76
2022-11-05T22:09:34.090Z,79.38
2022-11-05T22:11:48.501Z,79.65
2022-11-05T22:14:01.814Z,79.89
2022-11-05T22:16:16.571Z,79.79
2022-11-05T22:18:30.431Z,80.18
2022-11-05T22:20:46.999Z,80.81
2022-11-05T22:23:01.322Z,81.27
2022-11-05T22:25:17.568Z,81.53
2022-11-05T22:27:32.219Z,81.47
2022-11-05T22:29:47.442Z,81.56
2022-11-05T22:32:00.742Z,81.62
2022-11-05T22:34:14.643Z,81.86
2022-11-05T22:36:28.465Z,81.81
2022-11-05T22:38:42.399Z,81.83
2022-11-05T22:40:56.944Z,82.06
2022-11-05T22:43:11.173Z,82.10
2022-11-05T22:45:24.786Z,82.35
2022-11-05T22:47:38.129Z,82.53
2022-11-05T22:49:52.300Z,82.51
2022-11-05T22:52:05.845Z,83.21
2022-11-05T22:54:20.249Z,83.59
2022-11-05T22:56:36.454Z,83.67
2022-11-05T22:58:50.965Z,84.11
2022-11-05T23:01:05.554Z,84.57
2022-11-05T23:03:20.619Z,85.04
2022-11-05T23:05:34.053Z,85.23
2022-11-05T23:08:05.879Z,85.45
2022-11-05T23:10:35.368Z,85.86
2022-11-05T23:12:49.025Z,85.66
2022-11-05T23:15:04.389Z,85.42
2022-11-05T23:17:34.086Z,84.87
2022-11-05T23:20:03.717Z,84.71
2022-11-05T23:22:38.472Z,84.02
2022-11-05T23:24:52.479Z,83.63
2022-11-05T23:27:05.752Z,83.51
2022-11-05T23:29:18.993Z,84.00
2022-11-05T23:31:49.023Z,84.30
2022-11-05T23:34:02.437Z,84.78
2022-11-05T23:36:35.613Z,84.94
2022-11-05T23:38:53.713Z,85.39
2022-11-05T23:41:26.442Z,85.47
2022-11-05T23:43:53.798Z,85.30
2022-11-05T23:46:21.924Z,85.03
2022-11-05T23:48:39.064Z,85.08
2022-11-05T23:50:55.483Z,85.20
2022-11-05T23:53:10.170Z,85.42
2022-11-05T23:55:23.586Z,85.63
2022-11-05T23:57:36.896Z,85.56
2022-11-05T23:59:50.122Z,85.56
